sensor_id;sensor_type;location;lat;lon;timestamp;P1;durP1;ratioP1;P2;durP2;ratioP2
38717;SDS011;24468;52.128;9.278;2023-04-24T00:02:13;1.15;;;0.47;;
38717;SDS011;24468;52.128;9.278;2023-04-24T00:04:39;0.60;;;0.38;;
38717;SDS011;24468;52.128;9.278;2023-04-24T00:07:05;1.92;;;0.88;;
38717;SDS011;24468;52.128;9.278;2023-04-24T00:09:32;1.23;;;0.55;;
38717;SDS011;24468;52.128;9.278;2023-04-24T00:11:58;0.40;;;0.40;;
38717;SDS011;24468;52.128;9.278;2023-04-24T00:14:24;0.70;;;0.60;;
38717;SDS011;24468;52.128;9.278;2023-04-24T00:16:50;2.17;;;0.40;;
38717;SDS011;24468;52.128;9.278;2023-04-24T00:19:16;0.52;;;0.52;;
38717;SDS011;24468;52.128;9.278;2023-04-24T00:21:42;0.60;;;0.60;;
38717;SDS011;24468;52.128;9.278;2023-04-24T00:24:07;0.45;;;0.40;;
38717;SDS011;24468;52.128;9.278;2023-04-24T00:26:36;0.90;;;0.50;;
38717;SDS011;24468;52.128;9.278;2023-04-24T00:29:02;1.23;;;0.73;;
38717;SDS011;24468;52.128;9.278;2023-04-24T00:31:27;1.05;;;0.50;;
38717;SDS011;24468;52.128;9.278;2023-04-24T00:33:53;1.48;;;0.57;;
38717;SDS011;24468;52.128;9.278;2023-04-24T00:36:18;1.17;;;0.40;;
38717;SDS011;24468;52.128;9.278;2023-04-24T00:38:45;1.98;;;0.43;;
38717;SDS011;24468;52.128;9.278;2023-04-24T00:41:11;0.85;;;0.52;;
38717;SDS011;24468;52.128;9.278;2023-04-24T00:43:37;0.40;;;0.40;;
38717;SDS011;24468;52.128;9.278;2023-04-24T00:46:02;3.90;;;0.50;;
38717;SDS011;24468;52.128;9.278;2023-04-24T00:48:29;0.40;;;0.40;;
38717;SDS011;24468;52.128;9.278;2023-04-24T00:50:56;0.30;;;0.30;;
38717;SDS011;24468;52.128;9.278;2023-04-24T00:53:23;0.50;;;0.40;;
38717;SDS011;24468;52.128;9.278;2023-04-24T00:55:49;0.90;;;0.47;;
38717;SDS011;24468;52.128;9.278;2023-04-24T00:58:15;2.00;;;0.38;;
38717;SDS011;24468;52.128;9.278;2023-04-24T01:00:41;3.47;;;0.50;;
38717;SDS011;24468;52.128;9.278;2023-04-24T01:03:06;0.30;;;0.30;;
38717;SDS011;24468;52.128;9.278;2023-04-24T01:05:32;1.13;;;0.40;;
38717;SDS011;24468;52.128;9.278;2023-04-24T01:07:58;2.92;;;0.50;;
38717;SDS011;24468;52.128;9.278;2023-04-24T01:10:24;1.08;;;0.40;;
38717;SDS011;24468;52.128;9.278;2023-04-24T01:12:52;0.30;;;0.30;;
38717;SDS011;24468;52.128;9.278;2023-04-24T01:15:18;0.55;;;0.45;;
38717;SDS011;24468;52.128;9.278;2023-04-24T01:17:43;0.30;;;0.30;;
38717;SDS011;24468;52.128;9.278;2023-04-24T01:20:10;0.40;;;0.40;;
38717;SDS011;24468;52.128;9.278;2023-04-24T01:22:35;0.40;;;0.30;;
38717;SDS011;24468;52.128;9.278;2023-04-24T01:25:01;0.40;;;0.32;;
38717;SDS011;24468;52.128;9.278;2023-04-24T01:27:28;1.00;;;0.40;;
38717;SDS011;24468;52.128;9.278;2023-04-24T01:29:54;2.60;;;1.05;;
38717;SDS011;24468;52.128;9.278;2023-04-24T01:32:19;0.20;;;0.20;;
38717;SDS011;24468;52.128;9.278;2023-04-24T01:34:45;0.75;;;0.30;;
38717;SDS011;24468;52.128;9.278;2023-04-24T01:37:12;0.35;;;0.30;;
38717;SDS011;24468;52.128;9.278;2023-04-24T01:39:37;0.63;;;0.28;;
38717;SDS011;24468;52.128;9.278;2023-04-24T01:42:03;0.52;;;0.45;;
38717;SDS011;24468;52.128;9.278;2023-04-24T01:44:30;1.02;;;0.47;;
38717;SDS011;24468;52.128;9.278;2023-04-24T01:46:55;0.95;;;0.60;;
38717;SDS011;24468;52.128;9.278;2023-04-24T01:49:21;0.38;;;0.30;;
38717;SDS011;24468;52.128;9.278;2023-04-24T01:51:47;0.43;;;0.32;;
38717;SDS011;24468;52.128;9.278;2023-04-24T01:54:14;0.60;;;0.40;;
38717;SDS011;24468;52.128;9.278;2023-04-24T01:56:40;0.30;;;0.30;;
38717;SDS011;24468;52.128;9.278;2023-04-24T01:59:07;1.50;;;0.60;;
38717;SDS011;24468;52.128;9.278;2023-04-24T02:01:35;0.68;;;0.40;;
38717;SDS011;24468;52.128;9.278;2023-04-24T02:04:02;2.30;;;0.63;;
38717;SDS011;24468;52.128;9.278;2023-04-24T02:06:29;0.47;;;0.47;;
38717;SDS011;24468;52.128;9.278;2023-04-24T02:08:56;0.38;;;0.35;;
38717;SDS011;24468;52.128;9.278;2023-04-24T02:11:25;1.45;;;0.52;;
38717;SDS011;24468;52.128;9.278;2023-04-24T02:13:51;1.45;;;0.45;;
38717;SDS011;24468;52.128;9.278;2023-04-24T02:16:17;1.27;;;0.50;;
38717;SDS011;24468;52.128;9.278;2023-04-24T02:18:43;0.52;;;0.40;;
38717;SDS011;24468;52.128;9.278;2023-04-24T02:21:09;0.55;;;0.22;;
38717;SDS011;24468;52.128;9.278;2023-04-24T02:23:35;0.30;;;0.22;;
38717;SDS011;24468;52.128;9.278;2023-04-24T02:26:00;0.20;;;0.20;;
38717;SDS011;24468;52.128;9.278;2023-04-24T02:28:26;0.20;;;0.10;;
38717;SDS011;24468;52.128;9.278;2023-04-24T02:30:52;1.38;;;0.40;;
38717;SDS011;24468;52.128;9.278;2023-04-24T02:33:17;0.30;;;0.25;;
38717;SDS011;24468;52.128;9.278;2023-04-24T02:35:43;0.40;;;0.30;;
38717;SDS011;24468;52.128;9.278;2023-04-24T02:38:08;0.65;;;0.40;;
38717;SDS011;24468;52.128;9.278;2023-04-24T02:40:34;0.30;;;0.20;;
38717;SDS011;24468;52.128;9.278;2023-04-24T02:42:59;0.30;;;0.30;;
38717;SDS011;24468;52.128;9.278;2023-04-24T02:45:25;0.38;;;0.28;;
38717;SDS011;24468;52.128;9.278;2023-04-24T02:47:50;2.25;;;0.40;;
38717;SDS011;24468;52.128;9.278;2023-04-24T02:50:16;2.67;;;0.95;;
38717;SDS011;24468;52.128;9.278;2023-04-24T02:52:41;0.40;;;0.30;;
38717;SDS011;24468;52.128;9.278;2023-04-24T02:55:07;0.30;;;0.25;;
38717;SDS011;24468;52.128;9.278;2023-04-24T02:57:33;0.32;;;0.20;;
38717;SDS011;24468;52.128;9.278;2023-04-24T02:59:59;1.50;;;0.45;;
38717;SDS011;24468;52.128;9.278;2023-04-24T03:02:24;0.68;;;0.30;;
38717;SDS011;24468;52.128;9.278;2023-04-24T03:04:50;0.90;;;0.22;;
38717;SDS011;24468;52.128;9.278;2023-04-24T03:07:15;0.82;;;0.30;;
38717;SDS011;24468;52.128;9.278;2023-04-24T03:09:41;0.30;;;0.20;;
38717;SDS011;24468;52.128;9.278;2023-04-24T03:12:06;0.43;;;0.30;;
38717;SDS011;24468;52.128;9.278;2023-04-24T03:14:32;0.32;;;0.30;;
38717;SDS011;24468;52.128;9.278;2023-04-24T03:16:58;0.50;;;0.40;;
38717;SDS011;24468;52.128;9.278;2023-04-24T03:19:23;1.95;;;0.47;;
38717;SDS011;24468;52.128;9.278;2023-04-24T03:21:49;1.42;;;0.30;;
38717;SDS011;24468;52.128;9.278;2023-04-24T03:24:15;1.17;;;0.17;;
38717;SDS011;24468;52.128;9.278;2023-04-24T03:26:40;0.55;;;0.20;;
38717;SDS011;24468;52.128;9.278;2023-04-24T03:29:06;1.17;;;0.28;;
38717;SDS011;24468;52.128;9.278;2023-04-24T03:31:32;1.38;;;0.20;;
38717;SDS011;24468;52.128;9.278;2023-04-24T03:33:57;0.28;;;0.25;;
38717;SDS011;24468;52.128;9.278;2023-04-24T03:36:23;0.25;;;0.22;;
38717;SDS011;24468;52.128;9.278;2023-04-24T03:38:48;0.40;;;0.30;;
38717;SDS011;24468;52.128;9.278;2023-04-24T03:41:14;0.57;;;0.45;;
38717;SDS011;24468;52.128;9.278;2023-04-24T03:43:39;1.17;;;1.02;;
38717;SDS011;24468;52.128;9.278;2023-04-24T03:46:05;1.10;;;0.50;;
38717;SDS011;24468;52.128;9.278;2023-04-24T03:48:30;1.02;;;0.40;;
38717;SDS011;24468;52.128;9.278;2023-04-24T03:50:56;0.30;;;0.20;;
38717;SDS011;24468;52.128;9.278;2023-04-24T03:53:21;1.00;;;0.40;;
38717;SDS011;24468;52.128;9.278;2023-04-24T03:55:47;1.08;;;0.40;;
38717;SDS011;24468;52.128;9.278;2023-04-24T03:58:13;0.38;;;0.30;;
38717;SDS011;24468;52.128;9.278;2023-04-24T04:00:39;0.52;;;0.40;;
38717;SDS011;24468;52.128;9.278;2023-04-24T04:03:05;0.30;;;0.30;;
38717;SDS011;24468;52.128;9.278;2023-04-24T04:05:31;0.40;;;0.20;;
38717;SDS011;24468;52.128;9.278;2023-04-24T04:07:57;0.20;;;0.10;;
38717;SDS011;24468;52.128;9.278;2023-04-24T04:10:22;0.47;;;0.30;;
38717;SDS011;24468;52.128;9.278;2023-04-24T04:12:48;0.38;;;0.38;;
38717;SDS011;24468;52.128;9.278;2023-04-24T04:15:14;1.02;;;0.30;;
38717;SDS011;24468;52.128;9.278;2023-04-24T04:17:40;1.95;;;0.55;;
38717;SDS011;24468;52.128;9.278;2023-04-24T04:20:05;0.45;;;0.40;;
38717;SDS011;24468;52.128;9.278;2023-04-24T04:22:34;0.20;;;0.20;;
38717;SDS011;24468;52.128;9.278;2023-04-24T04:25:01;0.60;;;0.50;;
38717;SDS011;24468;52.128;9.278;2023-04-24T04:27:28;1.25;;;0.50;;
38717;SDS011;24468;52.128;9.278;2023-04-24T04:29:56;1.52;;;0.40;;
38717;SDS011;24468;52.128;9.278;2023-04-24T04:32:26;0.73;;;0.50;;
38717;SDS011;24468;52.128;9.278;2023-04-24T04:34:51;1.45;;;0.30;;
38717;SDS011;24468;52.128;9.278;2023-04-24T04:37:18;0.30;;;0.25;;
38717;SDS011;24468;52.128;9.278;2023-04-24T04:39:44;1.33;;;0.73;;
38717;SDS011;24468;52.128;9.278;2023-04-24T04:42:09;1.42;;;0.20;;
38717;SDS011;24468;52.128;9.278;2023-04-24T04:44:35;0.65;;;0.50;;
38717;SDS011;24468;52.128;9.278;2023-04-24T04:47:01;0.65;;;0.50;;
38717;SDS011;24468;52.128;9.278;2023-04-24T04:49:30;0.60;;;0.40;;
38717;SDS011;24468;52.128;9.278;2023-04-24T04:51:57;0.80;;;0.50;;
38717;SDS011;24468;52.128;9.278;2023-04-24T04:54:22;0.70;;;0.55;;
38717;SDS011;24468;52.128;9.278;2023-04-24T04:56:49;0.63;;;0.50;;
38717;SDS011;24468;52.128;9.278;2023-04-24T04:59:15;2.70;;;1.05;;
38717;SDS011;24468;52.128;9.278;2023-04-24T05:01:41;2.30;;;1.00;;
38717;SDS011;24468;52.128;9.278;2023-04-24T05:04:06;2.13;;;1.20;;
38717;SDS011;24468;52.128;9.278;2023-04-24T05:06:32;2.10;;;1.08;;
38717;SDS011;24468;52.128;9.278;2023-04-24T05:08:57;1.50;;;1.40;;
38717;SDS011;24468;52.128;9.278;2023-04-24T05:11:23;1.90;;;1.00;;
38717;SDS011;24468;52.128;9.278;2023-04-24T05:13:48;1.23;;;1.00;;
38717;SDS011;24468;52.128;9.278;2023-04-24T05:16:14;3.92;;;1.40;;
38717;SDS011;24468;52.128;9.278;2023-04-24T05:18:40;1.40;;;0.90;;
38717;SDS011;24468;52.128;9.278;2023-04-24T05:21:05;1.20;;;0.93;;
38717;SDS011;24468;52.128;9.278;2023-04-24T05:23:31;0.60;;;0.60;;
38717;SDS011;24468;52.128;9.278;2023-04-24T05:25:56;4.82;;;1.00;;
38717;SDS011;24468;52.128;9.278;2023-04-24T05:28:22;0.77;;;0.60;;
38717;SDS011;24468;52.128;9.278;2023-04-24T05:30:47;2.28;;;0.80;;
38717;SDS011;24468;52.128;9.278;2023-04-24T05:33:13;1.05;;;0.95;;
38717;SDS011;24468;52.128;9.278;2023-04-24T05:35:40;1.10;;;1.05;;
38717;SDS011;24468;52.128;9.278;2023-04-24T05:38:10;1.17;;;1.00;;
38717;SDS011;24468;52.128;9.278;2023-04-24T05:40:36;3.28;;;1.40;;
38717;SDS011;24468;52.128;9.278;2023-04-24T05:43:02;1.02;;;0.93;;
38717;SDS011;24468;52.128;9.278;2023-04-24T05:45:27;2.13;;;1.30;;
38717;SDS011;24468;52.128;9.278;2023-04-24T05:47:53;1.33;;;1.00;;
38717;SDS011;24468;52.128;9.278;2023-04-24T05:50:18;3.08;;;1.40;;
38717;SDS011;24468;52.128;9.278;2023-04-24T05:52:44;1.17;;;1.08;;
38717;SDS011;24468;52.128;9.278;2023-04-24T05:55:10;1.35;;;1.25;;
38717;SDS011;24468;52.128;9.278;2023-04-24T05:57:35;1.50;;;1.40;;
38717;SDS011;24468;52.128;9.278;2023-04-24T06:00:01;1.50;;;1.30;;
38717;SDS011;24468;52.128;9.278;2023-04-24T06:02:28;1.40;;;1.30;;
38717;SDS011;24468;52.128;9.278;2023-04-24T06:04:57;1.73;;;1.63;;
38717;SDS011;24468;52.128;9.278;2023-04-24T06:07:24;3.38;;;3.08;;
38717;SDS011;24468;52.128;9.278;2023-04-24T06:09:51;3.45;;;3.10;;
38717;SDS011;24468;52.128;9.278;2023-04-24T06:12:17;4.10;;;3.70;;
38717;SDS011;24468;52.128;9.278;2023-04-24T06:14:42;4.85;;;4.35;;
38717;SDS011;24468;52.128;9.278;2023-04-24T06:17:08;5.70;;;5.15;;
38717;SDS011;24468;52.128;9.278;2023-04-24T06:19:34;7.03;;;4.75;;
38717;SDS011;24468;52.128;9.278;2023-04-24T06:21:59;6.25;;;4.78;;
38717;SDS011;24468;52.128;9.278;2023-04-24T06:24:28;6.85;;;4.93;;
38717;SDS011;24468;52.128;9.278;2023-04-24T06:26:54;6.55;;;4.60;;
38717;SDS011;24468;52.128;9.278;2023-04-24T06:29:19;6.70;;;4.88;;
38717;SDS011;24468;52.128;9.278;2023-04-24T06:31:45;6.90;;;5.13;;
38717;SDS011;24468;52.128;9.278;2023-04-24T06:34:11;5.78;;;5.10;;
38717;SDS011;24468;52.128;9.278;2023-04-24T06:36:36;6.63;;;4.57;;
38717;SDS011;24468;52.128;9.278;2023-04-24T06:39:02;7.60;;;5.50;;
38717;SDS011;24468;52.128;9.278;2023-04-24T06:41:28;5.88;;;5.22;;
38717;SDS011;24468;52.128;9.278;2023-04-24T06:43:54;5.57;;;4.63;;
38717;SDS011;24468;52.128;9.278;2023-04-24T06:46:19;8.07;;;5.13;;
38717;SDS011;24468;52.128;9.278;2023-04-24T06:48:48;6.82;;;4.70;;
38717;SDS011;24468;52.128;9.278;2023-04-24T06:51:14;6.30;;;5.70;;
38717;SDS011;24468;52.128;9.278;2023-04-24T06:53:40;6.03;;;4.88;;
38717;SDS011;24468;52.128;9.278;2023-04-24T06:56:05;6.15;;;5.55;;
38717;SDS011;24468;52.128;9.278;2023-04-24T06:58:31;7.22;;;6.03;;
38717;SDS011;24468;52.128;9.278;2023-04-24T07:00:57;7.43;;;5.43;;
38717;SDS011;24468;52.128;9.278;2023-04-24T07:03:22;7.82;;;5.07;;
38717;SDS011;24468;52.128;9.278;2023-04-24T07:05:48;8.05;;;5.13;;
38717;SDS011;24468;52.128;9.278;2023-04-24T07:08:17;5.43;;;4.93;;
38717;SDS011;24468;52.128;9.278;2023-04-24T07:10:43;6.15;;;5.00;;
38717;SDS011;24468;52.128;9.278;2023-04-24T07:13:09;7.40;;;5.90;;
38717;SDS011;24468;52.128;9.278;2023-04-24T07:15:35;6.53;;;5.88;;
38717;SDS011;24468;52.128;9.278;2023-04-24T07:18:00;6.45;;;5.75;;
38717;SDS011;24468;52.128;9.278;2023-04-24T07:20:26;6.25;;;5.57;;
38717;SDS011;24468;52.128;9.278;2023-04-24T07:22:52;6.75;;;6.10;;
38717;SDS011;24468;52.128;9.278;2023-04-24T07:25:18;7.25;;;6.30;;
38717;SDS011;24468;52.128;9.278;2023-04-24T07:27:44;7.50;;;6.03;;
38717;SDS011;24468;52.128;9.278;2023-04-24T07:30:10;7.05;;;5.75;;
38717;SDS011;24468;52.128;9.278;2023-04-24T07:32:36;8.52;;;6.43;;
38717;SDS011;24468;52.128;9.278;2023-04-24T07:35:02;6.45;;;5.68;;
38717;SDS011;24468;52.128;9.278;2023-04-24T07:37:28;7.47;;;6.78;;
38717;SDS011;24468;52.128;9.278;2023-04-24T07:39:54;9.30;;;6.43;;
38717;SDS011;24468;52.128;9.278;2023-04-24T07:42:20;6.65;;;5.78;;
38717;SDS011;24468;52.128;9.278;2023-04-24T07:44:45;16.67;;;6.15;;
38717;SDS011;24468;52.128;9.278;2023-04-24T07:47:12;6.30;;;5.70;;
38717;SDS011;24468;52.128;9.278;2023-04-24T07:49:41;7.03;;;5.93;;
38717;SDS011;24468;52.128;9.278;2023-04-24T07:52:07;8.75;;;6.68;;
38717;SDS011;24468;52.128;9.278;2023-04-24T07:54:33;6.00;;;5.38;;
38717;SDS011;24468;52.128;9.278;2023-04-24T07:56:58;7.07;;;5.18;;
38717;SDS011;24468;52.128;9.278;2023-04-24T07:59:25;7.18;;;6.47;;
38717;SDS011;24468;52.128;9.278;2023-04-24T08:01:50;7.05;;;6.25;;
38717;SDS011;24468;52.128;9.278;2023-04-24T08:04:16;5.85;;;4.38;;
38717;SDS011;24468;52.128;9.278;2023-04-24T08:06:42;5.63;;;4.78;;
38717;SDS011;24468;52.128;9.278;2023-04-24T08:09:08;5.60;;;5.10;;
38717;SDS011;24468;52.128;9.278;2023-04-24T08:11:34;10.65;;;5.55;;
38717;SDS011;24468;52.128;9.278;2023-04-24T08:14:00;5.20;;;4.70;;
38717;SDS011;24468;52.128;9.278;2023-04-24T08:16:25;7.57;;;4.93;;
38717;SDS011;24468;52.128;9.278;2023-04-24T08:18:51;4.72;;;3.83;;
38717;SDS011;24468;52.128;9.278;2023-04-24T08:21:18;4.18;;;3.78;;
38717;SDS011;24468;52.128;9.278;2023-04-24T08:23:45;5.18;;;3.60;;
38717;SDS011;24468;52.128;9.278;2023-04-24T08:26:11;4.45;;;3.28;;
38717;SDS011;24468;52.128;9.278;2023-04-24T08:28:37;4.68;;;4.05;;
38717;SDS011;24468;52.128;9.278;2023-04-24T08:31:03;5.07;;;3.53;;
38717;SDS011;24468;52.128;9.278;2023-04-24T08:33:29;6.28;;;3.63;;
38717;SDS011;24468;52.128;9.278;2023-04-24T08:36:05;3.97;;;3.03;;
38717;SDS011;24468;52.128;9.278;2023-04-24T08:38:32;3.38;;;3.08;;
38717;SDS011;24468;52.128;9.278;2023-04-24T08:40:59;4.32;;;3.47;;
38717;SDS011;24468;52.128;9.278;2023-04-24T08:43:26;4.68;;;4.18;;
38717;SDS011;24468;52.128;9.278;2023-04-24T08:45:52;5.90;;;3.47;;
38717;SDS011;24468;52.128;9.278;2023-04-24T08:48:20;4.68;;;3.72;;
38717;SDS011;24468;52.128;9.278;2023-04-24T08:50:48;3.63;;;3.17;;
38717;SDS011;24468;52.128;9.278;2023-04-24T08:53:16;4.22;;;3.67;;
38717;SDS011;24468;52.128;9.278;2023-04-24T08:55:43;4.20;;;3.60;;
38717;SDS011;24468;52.128;9.278;2023-04-24T08:58:13;4.97;;;4.10;;
38717;SDS011;24468;52.128;9.278;2023-04-24T09:00:40;4.55;;;4.15;;
38717;SDS011;24468;52.128;9.278;2023-04-24T09:03:11;3.60;;;3.30;;
38717;SDS011;24468;52.128;9.278;2023-04-24T09:05:40;5.60;;;3.95;;
38717;SDS011;24468;52.128;9.278;2023-04-24T09:08:11;8.20;;;3.85;;
38717;SDS011;24468;52.128;9.278;2023-04-24T09:10:39;4.03;;;3.40;;
38717;SDS011;24468;52.128;9.278;2023-04-24T09:13:05;6.32;;;3.45;;
38717;SDS011;24468;52.128;9.278;2023-04-24T09:15:34;4.20;;;3.58;;
38717;SDS011;24468;52.128;9.278;2023-04-24T09:18:00;3.70;;;3.40;;
38717;SDS011;24468;52.128;9.278;2023-04-24T09:20:26;5.80;;;2.97;;
38717;SDS011;24468;52.128;9.278;2023-04-24T09:22:56;3.70;;;3.03;;
38717;SDS011;24468;52.128;9.278;2023-04-24T09:25:23;2.83;;;2.63;;
38717;SDS011;24468;52.128;9.278;2023-04-24T09:28:00;3.15;;;2.70;;
38717;SDS011;24468;52.128;9.278;2023-04-24T09:30:27;2.75;;;2.55;;
38717;SDS011;24468;52.128;9.278;2023-04-24T09:33:09;2.50;;;2.30;;
38717;SDS011;24468;52.128;9.278;2023-04-24T09:35:40;2.20;;;1.90;;
38717;SDS011;24468;52.128;9.278;2023-04-24T09:38:08;2.75;;;2.13;;
38717;SDS011;24468;52.128;9.278;2023-04-24T09:40:34;2.67;;;2.35;;
38717;SDS011;24468;52.128;9.278;2023-04-24T09:43:00;3.10;;;2.10;;
38717;SDS011;24468;52.128;9.278;2023-04-24T09:45:28;4.00;;;2.10;;
38717;SDS011;24468;52.128;9.278;2023-04-24T09:48:00;2.88;;;1.90;;
38717;SDS011;24468;52.128;9.278;2023-04-24T09:50:26;2.25;;;2.00;;
38717;SDS011;24468;52.128;9.278;2023-04-24T09:52:59;1.55;;;1.40;;
38717;SDS011;24468;52.128;9.278;2023-04-24T09:55:28;1.70;;;1.60;;
38717;SDS011;24468;52.128;9.278;2023-04-24T09:58:00;1.65;;;1.27;;
38717;SDS011;24468;52.128;9.278;2023-04-24T10:00:31;3.13;;;1.92;;
38717;SDS011;24468;52.128;9.278;2023-04-24T10:02:59;1.52;;;1.40;;
38717;SDS011;24468;52.128;9.278;2023-04-24T10:05:28;2.22;;;1.45;;
38717;SDS011;24468;52.128;9.278;2023-04-24T10:08:05;1.98;;;1.70;;
38717;SDS011;24468;52.128;9.278;2023-04-24T10:10:36;3.08;;;1.98;;
38717;SDS011;24468;52.128;9.278;2023-04-24T10:13:06;1.87;;;1.77;;
38717;SDS011;24468;52.128;9.278;2023-04-24T10:15:34;1.70;;;1.50;;
38717;SDS011;24468;52.128;9.278;2023-04-24T10:18:00;1.75;;;1.65;;
38717;SDS011;24468;52.128;9.278;2023-04-24T10:20:26;3.15;;;2.00;;
38717;SDS011;24468;52.128;9.278;2023-04-24T10:22:55;2.88;;;2.33;;
38717;SDS011;24468;52.128;9.278;2023-04-24T10:25:27;3.75;;;1.75;;
38717;SDS011;24468;52.128;9.278;2023-04-24T10:27:55;2.30;;;2.10;;
38717;SDS011;24468;52.128;9.278;2023-04-24T10:30:24;2.67;;;2.25;;
38717;SDS011;24468;52.128;9.278;2023-04-24T10:33:00;3.60;;;2.13;;
38717;SDS011;24468;52.128;9.278;2023-04-24T10:35:29;3.40;;;2.22;;
38717;SDS011;24468;52.128;9.278;2023-04-24T10:37:58;1.88;;;1.70;;
38717;SDS011;24468;52.128;9.278;2023-04-24T10:40:41;3.53;;;3.22;;
38717;SDS011;24468;52.128;9.278;2023-04-24T10:43:08;2.85;;;1.63;;
38717;SDS011;24468;52.128;9.278;2023-04-24T10:45:36;1.55;;;1.30;;
38717;SDS011;24468;52.128;9.278;2023-04-24T10:48:07;1.10;;;0.90;;
38717;SDS011;24468;52.128;9.278;2023-04-24T10:50:42;1.73;;;1.00;;
38717;SDS011;24468;52.128;9.278;2023-04-24T10:53:19;1.20;;;1.10;;
38717;SDS011;24468;52.128;9.278;2023-04-24T10:55:58;0.68;;;0.63;;
38717;SDS011;24468;52.128;9.278;2023-04-24T10:58:36;0.77;;;0.77;;
38717;SDS011;24468;52.128;9.278;2023-04-24T11:01:02;0.85;;;0.68;;
38717;SDS011;24468;52.128;9.278;2023-04-24T11:03:28;0.80;;;0.73;;
38717;SDS011;24468;52.128;9.278;2023-04-24T11:05:57;0.98;;;0.57;;
38717;SDS011;24468;52.128;9.278;2023-04-24T11:08:28;1.20;;;0.50;;
38717;SDS011;24468;52.128;9.278;2023-04-24T11:10:57;4.40;;;0.65;;
38717;SDS011;24468;52.128;9.278;2023-04-24T11:13:29;1.42;;;1.33;;
38717;SDS011;24468;52.128;9.278;2023-04-24T11:19:09;1.60;;;0.50;;
38717;SDS011;24468;52.128;9.278;2023-04-24T11:21:42;1.63;;;0.43;;
38717;SDS011;24468;52.128;9.278;2023-04-24T11:27:19;0.43;;;0.43;;
38717;SDS011;24468;52.128;9.278;2023-04-24T11:37:38;0.45;;;0.43;;
38717;SDS011;24468;52.128;9.278;2023-04-24T11:40:11;0.55;;;0.55;;
38717;SDS011;24468;52.128;9.278;2023-04-24T11:42:39;0.65;;;0.35;;
38717;SDS011;24468;52.128;9.278;2023-04-24T11:47:49;0.45;;;0.45;;
38717;SDS011;24468;52.128;9.278;2023-04-24T11:50:15;0.43;;;0.40;;
38717;SDS011;24468;52.128;9.278;2023-04-24T11:52:48;1.30;;;0.40;;
38717;SDS011;24468;52.128;9.278;2023-04-24T11:57:47;0.40;;;0.40;;
38717;SDS011;24468;52.128;9.278;2023-04-24T12:00:16;1.77;;;0.32;;
38717;SDS011;24468;52.128;9.278;2023-04-24T12:03:09;1.70;;;0.50;;
38717;SDS011;24468;52.128;9.278;2023-04-24T12:05:36;0.75;;;0.70;;
38717;SDS011;24468;52.128;9.278;2023-04-24T12:08:03;1.55;;;0.85;;
38717;SDS011;24468;52.128;9.278;2023-04-24T12:10:30;1.33;;;1.20;;
38717;SDS011;24468;52.128;9.278;2023-04-24T12:12:57;2.40;;;1.40;;
38717;SDS011;24468;52.128;9.278;2023-04-24T12:15:24;1.83;;;1.33;;
38717;SDS011;24468;52.128;9.278;2023-04-24T12:17:50;1.58;;;1.00;;
38717;SDS011;24468;52.128;9.278;2023-04-24T12:20:22;1.23;;;1.13;;
38717;SDS011;24468;52.128;9.278;2023-04-24T12:22:56;0.98;;;0.98;;
38717;SDS011;24468;52.128;9.278;2023-04-24T12:25:24;0.90;;;0.90;;
38717;SDS011;24468;52.128;9.278;2023-04-24T12:27:53;0.88;;;0.88;;
38717;SDS011;24468;52.128;9.278;2023-04-24T12:30:42;4.88;;;0.82;;
38717;SDS011;24468;52.128;9.278;2023-04-24T12:33:16;0.85;;;0.70;;
38717;SDS011;24468;52.128;9.278;2023-04-24T12:35:46;1.80;;;0.85;;
38717;SDS011;24468;52.128;9.278;2023-04-24T12:38:22;0.90;;;0.70;;
38717;SDS011;24468;52.128;9.278;2023-04-24T12:41:03;0.80;;;0.80;;
38717;SDS011;24468;52.128;9.278;2023-04-24T12:43:34;1.60;;;0.82;;
38717;SDS011;24468;52.128;9.278;2023-04-24T12:46:00;1.00;;;0.90;;
38717;SDS011;24468;52.128;9.278;2023-04-24T12:48:27;1.50;;;0.95;;
38717;SDS011;24468;52.128;9.278;2023-04-24T12:50:53;1.35;;;0.90;;
38717;SDS011;24468;52.128;9.278;2023-04-24T12:53:20;0.52;;;0.30;;
38717;SDS011;24468;52.128;9.278;2023-04-24T12:55:45;0.40;;;0.40;;
38717;SDS011;24468;52.128;9.278;2023-04-24T12:58:17;0.20;;;0.20;;
38717;SDS011;24468;52.128;9.278;2023-04-24T13:00:45;0.30;;;0.25;;
38717;SDS011;24468;52.128;9.278;2023-04-24T13:03:12;0.40;;;0.30;;
38717;SDS011;24468;52.128;9.278;2023-04-24T13:05:37;0.20;;;0.20;;
38717;SDS011;24468;52.128;9.278;2023-04-24T13:08:03;0.40;;;0.20;;
38717;SDS011;24468;52.128;9.278;2023-04-24T13:10:29;1.38;;;0.20;;
38717;SDS011;24468;52.128;9.278;2023-04-24T13:12:54;0.20;;;0.20;;
38717;SDS011;24468;52.128;9.278;2023-04-24T13:15:20;0.30;;;0.30;;
38717;SDS011;24468;52.128;9.278;2023-04-24T13:17:46;1.48;;;0.20;;
38717;SDS011;24468;52.128;9.278;2023-04-24T13:20:11;0.10;;;0.10;;
38717;SDS011;24468;52.128;9.278;2023-04-24T13:22:38;1.38;;;0.20;;
38717;SDS011;24468;52.128;9.278;2023-04-24T13:25:03;0.38;;;0.30;;
38717;SDS011;24468;52.128;9.278;2023-04-24T13:27:31;0.93;;;0.68;;
38717;SDS011;24468;52.128;9.278;2023-04-24T13:29:56;0.22;;;0.20;;
38717;SDS011;24468;52.128;9.278;2023-04-24T13:32:22;1.45;;;0.22;;
38717;SDS011;24468;52.128;9.278;2023-04-24T13:34:47;0.57;;;0.50;;
38717;SDS011;24468;52.128;9.278;2023-04-24T13:37:13;0.50;;;0.43;;
38717;SDS011;24468;52.128;9.278;2023-04-24T13:39:38;0.60;;;0.47;;
38717;SDS011;24468;52.128;9.278;2023-04-24T13:42:06;0.45;;;0.45;;
38717;SDS011;24468;52.128;9.278;2023-04-24T13:44:31;0.80;;;0.60;;
38717;SDS011;24468;52.128;9.278;2023-04-24T13:46:57;0.85;;;0.50;;
38717;SDS011;24468;52.128;9.278;2023-04-24T13:49:24;4.97;;;0.70;;
38717;SDS011;24468;52.128;9.278;2023-04-24T13:51:50;0.60;;;0.60;;
38717;SDS011;24468;52.128;9.278;2023-04-24T13:54:16;1.13;;;0.73;;
38717;SDS011;24468;52.128;9.278;2023-04-24T13:56:42;0.82;;;0.82;;
38717;SDS011;24468;52.128;9.278;2023-04-24T13:59:07;2.45;;;0.60;;
38717;SDS011;24468;52.128;9.278;2023-04-24T14:01:33;1.38;;;0.75;;
38717;SDS011;24468;52.128;9.278;2023-04-24T14:03:59;2.25;;;0.90;;
38717;SDS011;24468;52.128;9.278;2023-04-24T14:06:25;2.83;;;1.20;;
38717;SDS011;24468;52.128;9.278;2023-04-24T14:08:51;1.90;;;0.90;;
38717;SDS011;24468;52.128;9.278;2023-04-24T14:11:17;2.20;;;1.42;;
38717;SDS011;24468;52.128;9.278;2023-04-24T14:13:43;2.80;;;1.27;;
38717;SDS011;24468;52.128;9.278;2023-04-24T14:16:10;2.53;;;1.40;;
38717;SDS011;24468;52.128;9.278;2023-04-24T14:18:36;3.42;;;1.48;;
38717;SDS011;24468;52.128;9.278;2023-04-24T14:21:03;3.60;;;1.48;;
38717;SDS011;24468;52.128;9.278;2023-04-24T14:23:29;3.85;;;1.60;;
38717;SDS011;24468;52.128;9.278;2023-04-24T14:25:55;1.85;;;1.60;;
38717;SDS011;24468;52.128;9.278;2023-04-24T14:28:22;3.35;;;1.80;;
38717;SDS011;24468;52.128;9.278;2023-04-24T14:30:47;6.95;;;1.70;;
38717;SDS011;24468;52.128;9.278;2023-04-24T14:33:13;3.65;;;2.30;;
38717;SDS011;24468;52.128;9.278;2023-04-24T14:35:40;2.85;;;1.70;;
38717;SDS011;24468;52.128;9.278;2023-04-24T14:38:09;4.50;;;1.77;;
38717;SDS011;24468;52.128;9.278;2023-04-24T14:40:35;4.90;;;2.33;;
38717;SDS011;24468;52.128;9.278;2023-04-24T14:43:02;4.45;;;1.80;;
38717;SDS011;24468;52.128;9.278;2023-04-24T14:45:28;7.40;;;2.47;;
38717;SDS011;24468;52.128;9.278;2023-04-24T14:47:54;3.70;;;2.15;;
38717;SDS011;24468;52.128;9.278;2023-04-24T14:50:20;2.72;;;2.17;;
38717;SDS011;24468;52.128;9.278;2023-04-24T14:52:46;2.15;;;1.35;;
38717;SDS011;24468;52.128;9.278;2023-04-24T14:55:11;2.92;;;1.98;;
38717;SDS011;24468;52.128;9.278;2023-04-24T14:57:38;3.78;;;1.55;;
38717;SDS011;24468;52.128;9.278;2023-04-24T15:00:04;6.22;;;2.00;;
38717;SDS011;24468;52.128;9.278;2023-04-24T15:02:33;2.08;;;1.88;;
38717;SDS011;24468;52.128;9.278;2023-04-24T15:05:02;4.32;;;1.88;;
38717;SDS011;24468;52.128;9.278;2023-04-24T15:07:28;5.50;;;2.30;;